Sparta, WI

2:13 AM CDT on July 28, 2014 (GMT -0500)
La Crosse Municipal (KLSE) Elev 653 ft | 43.88 °N, 91.25 °W | Change Station

Current weather conditions updated 20 minutes ago

Clear
Clear
59 °F
Feels Like 59 °F
N
7
Wind Variable Wind from North

Today is forecast to be Cooler than yesterday.

Today
High -- | Low -- °F
--% Chance of Precip.
Yesterday
High -- | Low -- °F
Precip. -- in
5:47 AM 8:31 PM
New Moon, 2% visible
Pressure 30.07 in
Visibility 10.0 miles
Clouds Clear
Dew Point 54 °F
Humidity 83%
Rainfall 0.00 in
Snow Depth Not available.
UV 0 out of 12
Pollen 6.30 out of 12
Air Quality Not available.
Flu Activity Not available.
METAR KLSE 280653Z AUTO 35006KT 10SM CLR 15/12 A3009 RMK AO2 SLP183 T01500122

More Conditions Fewer Conditions

Pressure 30.07 in
Visibility 10.0 miles
Clouds Clear
Dew Point 54 °F
Humidity 83%
Rainfall 0.00 in
Snow Depth Not available.
UV 0 out of 12
Pollen 6.30 out of 12
Air Quality Not available.
Flu Activity Not available.
METAR KLSE 280653Z AUTO 35006KT 10SM CLR 15/12 A3009 RMK AO2 SLP183 T01500122

More Conditions Fewer Conditions

10-Day Weather Forecast

Almanac

Astronomy

Jul. 28, 2014 Rise Set
Actual Time 5:47 AM CDT 8:31 PM CDT
Civil Twilight 5:13 AM CDT 9:04 PM CDT
Nautical Twilight 4:31 AM CDT 9:46 PM CDT
Astronomical Twilight 3:42 AM CDT 10:35 PM CDT
Moon 7:34 AM CDT 9:06 PM CDT
Length of Visible Light 15h 51m
Length of Day
14h 44m
Tomorrow will be 2m 11s shorter.
New Moon, 2% of the Moon is Illuminated
Today
New Moon
Aug 3
First Quarter
Aug 10
Full
Aug 17
Last Quarter
Aug 25
New

Today's Extremes

State Highs State Lows

Community

WunderPhotos

Upload Photos

1,738,292 photos uploaded!

Nearby

Snow Depth

Station Depth Elevation
No new snow has been reported.

Earthquake Activity

City Distance Mag. Time & Date
No recent earthquake activity has been reported nearby.
Minimum magnitude displayed is 2.5.

Coastal Water Temperatures

Place Temperature
No Stations Reporting

Nearby Weather Stations

Station Location Temp. Dew Point Humidity Wind Precip. Elev Updated Type
Black Oak, Mindoro, WI 57.7 °F 54 °F 89% NE  at  3.8 mph 0.00 in / hr 781 ft 2:07 AM CDT Rapid Fire
Water Mill, Tomah, WI 55.7 °F 53 °F 92% NNW  at  0.0 mph 0.00 in / hr 950 ft 2:13 AM CDT Rapid Fire
MesoWest WARENS , Warrens, WI 57 °F - - North  at  - 0.00 in / hr 977 ft 1:10 AM CDT MADIS
Holmen, Holmen, WI 63.9 °F 56 °F 74% NNW  at  0.0 mph 0.00 in / hr 705 ft 11:54 PM CDT Rapid Fire
Gillette at George, La Crosse, WI 61.5 °F 54 °F 76% SE  at  4.2 mph 0.00 in / hr 659 ft 2:13 AM CDT Rapid Fire
La Crosse - Downtown, La Crosse, WI 61.0 °F 56 °F 82% NW  at  11.0 mph 0.00 in / hr 682 ft 2:01 AM CDT Normal
WIDOT La Crosse - I-90 French Island, La Crosse, WI 62 °F 52 °F 71% NE  at  0 mph 0.00 in / hr 660 ft 1:04 AM CDT MADIS
Kendall, Wi., Kendall, WI 57.4 °F 52 °F 81% NW  at  6.9 mph 0.00 in / hr 1021 ft 2:13 AM CDT Rapid Fire

Show More Stations Show Fewer Stations